Dubrovnik, Croatia

7:37 PM CEST on September 23, 2018 (GMT +0200)
Cilipi

Weather History for LDDU - December, 2017

Change the Weather History Date:

Tuesday, December 19, 2017

  Actual Average (LYTV) Record (LYTV)
Temperature  
Mean Temperature 41 °F -  
Max Temperature 46 °F 52 °F 61 °F (2014)
Min Temperature 36 °F 35 °F 24 °F (2005)
Degree Days  
Heating Degree Days 24    
Moisture  
Dew Point 16 °F    
Average Humidity 36    
Maximum Humidity 45    
Minimum Humidity 22    
Precipitation  
Precipitation 0.00 in - - ()
Sea Level Pressure  
Sea Level Pressure 30.30 in    
Wind  
Wind Speed 20 mph ()    
Max Wind Speed 28 mph    
Max Gust Speed 33 mph    
Visibility 13.9 miles    
Events      
Averages and records for this station are not official NWS values.
T = Trace of Precipitation, MM = Missing Value Source: Averaged Metar Reports

Daily Weather History Graph

Daily Weather History Graph

Search for Another Location

Airport or City:

Astronomy

Dec. 19, 2017 Rise Set
Actual Time 7:12 AM CET 4:15 PM CET
Civil Twilight 6:40 AM CET 4:47 PM CET
Nautical Twilight 6:04 AM CET 5:23 PM CET
Astronomical Twilight 5:30 AM CET 5:57 PM CET
Moon 7:49 AM CET (12/19) 5:30 PM CET (12/19)
Length of Visible Light 10h 07m
Length of Day
9h 03m
New Moon, 1% of the Moon is Illuminated
Dec 19
New Moon
Dec 26
First Quarter
Jan 2
Full
Jan 8
Last Quarter
Jan 17
New

Hourly Weather History & Observations

Time (CET) Temp. Windchill Dew Point Humidity Pressure Visibility Wind Dir Wind Speed Gust Speed Precip Events Conditions
12:00 AM 39.2 °F 28.3 °F 15.8 °F 39% 30.15 in - NNE 25.3 mph - N/A   Clear
12:30 AM 39.2 °F 28.3 °F 15.8 °F 39% 30.15 in - NNE 25.3 mph - N/A   Clear
1:00 AM 38 °F - 16 °F 26% 30.19 in 19 mi NNE 24.6 mph - -  
1:00 AM 37.4 °F 26.1 °F 15.8 °F 41% 30.15 in - NNE 24.2 mph - N/A   Clear
1:13 AM 38 °F - 16 °F 27% 30.23 in 31 mi NNE 24.6 mph - -  
1:30 AM 39.2 °F 28.5 °F 15.8 °F 39% 30.18 in - NNE 24.2 mph - N/A   Clear
2:00 AM 37.4 °F 25.4 °F 15.8 °F 41% 30.18 in - NNE 27.6 mph - N/A   Clear
2:30 AM 37.4 °F 26.1 °F 15.8 °F 41% 30.18 in - NNE 24.2 mph - N/A   Clear
3:00 AM 37.4 °F 25.9 °F 14.0 °F 38% 30.18 in - NNE 25.3 mph - N/A   Clear
3:30 AM 39.2 °F 28.3 °F 14.0 °F 36% 30.18 in - NNE 25.3 mph - N/A   Clear
4:00 AM 38 °F - 14 °F 24% 30.22 in 19 mi NNE 24.6 mph - -  
4:00 AM 37.4 °F 26.1 °F 14.0 °F 38% 30.18 in - NNE 24.2 mph - N/A   Clear
4:30 AM 37.4 °F 26.6 °F 14.0 °F 38% 30.21 in - NNE 21.9 mph 33.4 mph N/A   Clear
5:00 AM 37.4 °F 26.1 °F 14.0 °F 38% 30.21 in - NNE 24.2 mph - N/A   Clear
5:30 AM 37.4 °F 25.9 °F 14.0 °F 38% 30.24 in - NNE 25.3 mph - N/A   Clear
6:00 AM 37.4 °F 25.9 °F 14.0 °F 38% 30.24 in - NNE 25.3 mph - N/A   Clear
6:30 AM 37.4 °F 25.6 °F 14.0 °F 38% 30.24 in - NNE 26.5 mph - N/A   Clear
7:00 AM 37 °F - 14 °F 26% 30.30 in 31 mi NNE 24.6 mph - -  
7:00 AM 37.4 °F 25.9 °F 14.0 °F 38% 30.27 in - NNE 25.3 mph - N/A   Clear
7:30 AM 37.4 °F 25.9 °F 14.0 °F 38% 30.27 in - NNE 25.3 mph - N/A   Clear
8:00 AM 37.4 °F 25.9 °F 14.0 °F 38% 30.27 in - NNE 25.3 mph - N/A   Clear
8:30 AM 39.2 °F 28.5 °F 14.0 °F 36% 30.30 in - NNE 24.2 mph - N/A   Clear
9:00 AM 39.2 °F 28.5 °F 14.0 °F 36% 30.30 in - NNE 24.2 mph - N/A   Clear
9:30 AM 39.2 °F 28.7 °F 15.8 °F 39% 30.33 in - NNE 23.0 mph - N/A   Clear
10:00 AM 41 °F - 15 °F 22% 30.36 in 19 mi NNE 20.1 mph - -  
10:00 AM 41.0 °F 31.6 °F 15.8 °F 36% 30.33 in - NNE 20.7 mph - N/A   Clear
10:30 AM 42.8 °F 34.3 °F 15.8 °F 34% 30.36 in - NNE 19.6 mph - N/A   Clear
11:00 AM 42.8 °F 35.4 °F 15.8 °F 34% 30.36 in - NNE 15.0 mph - N/A   Clear
11:30 AM 44.6 °F 40.2 °F 14.0 °F 29% 30.36 in - NE 8.1 mph - N/A   Clear
12:00 PM 44.6 °F 40.7 °F 15.8 °F 31% 30.36 in - SSE 6.9 mph - N/A   Clear
12:30 PM 44.6 °F 41.4 °F 17.6 °F 34% 30.36 in - Variable 5.8 mph - N/A   Clear
1:00 PM 44.6 °F 39.7 °F 15.8 °F 31% 30.36 in 6.2 mi NNE 9.2 mph - N/A   Scattered Clouds
1:30 PM 44.6 °F 39.2 °F 17.6 °F 34% 30.33 in 6.2 mi NNE 10.4 mph - N/A   Scattered Clouds
2:00 PM 44.6 °F 40.7 °F 17.6 °F 34% 30.33 in 6.2 mi Variable 6.9 mph - N/A   Scattered Clouds
2:30 PM 44.6 °F 40.7 °F 15.8 °F 31% 30.33 in 6.2 mi NE 6.9 mph - N/A   Partly Cloudy
3:00 PM 44.6 °F 39.7 °F 17.6 °F 34% 30.36 in - North 9.2 mph - N/A   Clear
3:30 PM 42.8 °F 37.5 °F 17.6 °F 36% 30.36 in - North 9.2 mph - N/A   Clear
4:00 PM 43 °F - 17 °F 22% 30.38 in 19 mi NNE 8.9 mph - -  
4:00 PM 42.8 °F 38.0 °F 17.6 °F 36% 30.36 in - NNE 8.1 mph - N/A   Clear
4:30 PM 42.8 °F 36.6 °F 17.6 °F 36% 30.36 in - NNE 11.5 mph - N/A   Clear
5:00 PM 41.0 °F 32.8 °F 17.6 °F 39% 30.36 in - NNE 16.1 mph - N/A   Clear
5:30 PM 41.0 °F 32.5 °F 15.8 °F 36% 30.36 in - NNE 17.3 mph - N/A   Clear
6:00 PM 41.0 °F 31.9 °F 15.8 °F 36% 30.36 in - NNE 19.6 mph - N/A   Clear
6:30 PM 39.2 °F 29.8 °F 17.6 °F 42% 30.36 in - NNE 18.4 mph - N/A   Clear
7:00 PM 39 °F - 16 °F 26% 30.41 in 19 mi NNE 20.1 mph - -  
7:00 PM 39.2 °F 29.3 °F 15.8 °F 39% 30.36 in - NNE 20.7 mph - N/A   Clear
7:30 PM 37.4 °F 26.6 °F 17.6 °F 45% 30.39 in - NNE 21.9 mph - N/A   Clear
8:00 PM 39.2 °F 29.3 °F 15.8 °F 39% 30.39 in - NNE 20.7 mph - N/A   Clear
8:30 PM 37.4 °F 26.6 °F 15.8 °F 41% 30.39 in - NNE 21.9 mph - N/A   Clear
9:00 PM 37.4 °F 26.9 °F 15.8 °F 41% 30.39 in - NNE 20.7 mph - N/A   Clear
9:30 PM 37.4 °F 26.6 °F 15.8 °F 41% 30.39 in - NNE 21.9 mph - N/A   Clear
10:00 PM 37 °F - 16 °F 29% 30.41 in 19 mi NNE 22.4 mph - -  
10:00 PM 37.4 °F 26.6 °F 15.8 °F 41% 30.36 in - NNE 21.9 mph - N/A   Clear
10:30 PM 37.4 °F 26.4 °F 15.8 °F 41% 30.36 in - NNE 23.0 mph - N/A   Clear
11:00 PM 37.4 °F 26.6 °F 15.8 °F 41% 30.36 in - NNE 21.9 mph - N/A   Clear
11:30 PM 37.4 °F 27.5 °F 15.8 °F 41% 30.36 in - North 18.4 mph - N/A   Clear